Terminal Aerodrome Forecast
Issued by NWS Cleveland, OH

Home | Current Version | Previous Version | Graphics & Text | Print | Product List | Glossary Off
Versions: 1 2 3 4 5 6 7 8 9 10 11 12 13 14 15 16 17 18 19 20 21

000
FTUS41 KCLE 311100
TAFERI
TAF
KERI 311129Z 3112/0112 20006KT P6SM BKN035 OVC120
     FM010800 VRB04KT 6SM -SN OVC035
     FM011000 VRB04KT 5SM -SN OVC019=

USA.gov is the U.S. government's official web portal to all federal, state and local government web resources and services.